PWSweather.com
Personal Weather Stations
Station Observations
BREEJEDURP
'sGravenzande, WestlandNL

'sGravenzandeWestlandNL

Lat: 52.00095260000001, Lon: 4.174256600000035

Elevation: 3

Station Type: Davis Vantage Pro2 Plus

www.breejedurp.nl

High Low Average
Temperature 45.1°F7.3°C 37.9°F3.3°C 43.1°F6.2°C
Dew Point 41.3°F5.2°C 33.5°F0.8°C 37.4°F3.0°C
Winds 23.0 mph 37.0 kmh 5.0 mph 8.0 kmh 13.0 mph WSW20.9 kmh WSW
Wind Gusts 36.0 mph57.9 kmh 9.0 mph14.5 kmh 20.0 mph32.2 kmh
Humidity 92% 69% 80%
Pressure 29.34 in993.6 mb 29.22 in989.5 mb -
Precipitation 0.25 in6.4 mm - -
Hour Temp Dew Point Humidity Winds Wind Gusts Pressure Precip Precip Rate Daily Precip Total
12:04 AM 44.6°F7.0°C 41.0°F5.0°C 87% 12.0 mph W19.3 kmh W 15.0 mph24.1 kmh 29.31 in992.6 mb 0.00 in0.0 mm 0.00 in0.0 mm 0.00 in0.0 mm
12:09 AM 44.8°F7.1°C 41.2°F5.1°C 87% 16.0 mph W25.7 kmh W 21.0 mph33.8 kmh 29.31 in992.6 mb 0.00 in0.0 mm 0.00 in0.0 mm 0.00 in0.0 mm
12:14 AM 45.0°F7.2°C 41.0°F5.0°C 86% 11.0 mph SW17.7 kmh SW 30.0 mph48.3 kmh 29.31 in992.6 mb 0.00 in0.0 mm 0.00 in0.0 mm 0.00 in0.0 mm
12:19 AM 45.0°F7.2°C 41.0°F5.0°C 86% 13.0 mph W20.9 kmh W 21.0 mph33.8 kmh 29.31 in992.6 mb 0.00 in0.0 mm 0.00 in0.0 mm 0.00 in0.0 mm
12:24 AM 45.1°F7.3°C 40.9°F4.9°C 85% 9.0 mph W14.5 kmh W 15.0 mph24.1 kmh 29.31 in992.6 mb 0.00 in0.0 mm 0.00 in0.0 mm 0.00 in0.0 mm
12:29 AM 45.0°F7.2°C 40.7°F4.8°C 85% 6.0 mph SW9.7 kmh SW 10.0 mph16.1 kmh 29.30 in992.2 mb 0.00 in0.0 mm 0.00 in0.0 mm 0.00 in0.0 mm
12:34 AM 45.0°F7.2°C 41.0°F5.0°C 86% 13.0 mph WSW20.9 kmh WSW 18.0 mph29.0 kmh 29.30 in992.2 mb 0.00 in0.0 mm 0.00 in0.0 mm 0.00 in0.0 mm
12:39 AM 45.1°F7.3°C 40.9°F4.9°C 85% 10.0 mph W16.1 kmh W 17.0 mph27.4 kmh 29.30 in992.2 mb 0.00 in0.0 mm 0.00 in0.0 mm 0.00 in0.0 mm
12:44 AM 45.1°F7.3°C 40.9°F4.9°C 85% 12.0 mph WSW19.3 kmh WSW 20.0 mph32.2 kmh 29.30 in992.2 mb 0.00 in0.0 mm 0.00 in0.0 mm 0.00 in0.0 mm
12:49 AM 45.1°F7.3°C 40.9°F4.9°C 85% 13.0 mph W20.9 kmh W 22.0 mph35.4 kmh 29.30 in992.2 mb 0.00 in0.0 mm 0.00 in0.0 mm 0.00 in0.0 mm
12:54 AM 45.0°F7.2°C 40.7°F4.8°C 85% 9.0 mph WSW14.5 kmh WSW 15.0 mph24.1 kmh 29.30 in992.2 mb 0.00 in0.0 mm 0.00 in0.0 mm 0.00 in0.0 mm
12:59 AM 45.0°F7.2°C 40.7°F4.8°C 85% 9.0 mph SW14.5 kmh SW 14.0 mph22.5 kmh 29.30 in992.2 mb 0.00 in0.0 mm 0.00 in0.0 mm 0.00 in0.0 mm
01:04 AM 45.0°F7.2°C 41.0°F5.0°C 86% 13.0 mph W20.9 kmh W 19.0 mph30.6 kmh 29.30 in992.2 mb 0.00 in0.0 mm 0.00 in0.0 mm 0.00 in0.0 mm
01:09 AM 44.8°F7.1°C 39.6°F4.2°C 82% 11.0 mph WSW17.7 kmh WSW 13.0 mph20.9 kmh 29.30 in992.2 mb 0.00 in0.0 mm 0.00 in0.0 mm 0.00 in0.0 mm
01:14 AM 44.4°F6.9°C 39.6°F4.2°C 83% 14.0 mph WSW22.5 kmh WSW 23.0 mph37.0 kmh 29.29 in991.9 mb 0.00 in0.0 mm 0.00 in0.0 mm 0.01 in0.3 mm
01:19 AM 44.8°F7.1°C 40.6°F4.8°C 85% 12.0 mph W19.3 kmh W 17.0 mph27.4 kmh 29.30 in992.2 mb 0.00 in0.0 mm 0.00 in0.0 mm 0.01 in0.3 mm
01:24 AM 44.4°F6.9°C 40.2°F4.6°C 85% 9.0 mph W14.5 kmh W 15.0 mph24.1 kmh 29.29 in991.9 mb 0.00 in0.0 mm 0.00 in0.0 mm 0.01 in0.3 mm
01:29 AM 44.4°F6.9°C 40.8°F4.9°C 87% 10.0 mph W16.1 kmh W 15.0 mph24.1 kmh 29.28 in991.5 mb 0.00 in0.0 mm 0.00 in0.0 mm 0.01 in0.3 mm
01:34 AM 44.6°F7.0°C 41.0°F5.0°C 87% 8.0 mph SW12.9 kmh SW 17.0 mph27.4 kmh 29.28 in991.5 mb 0.00 in0.0 mm 0.00 in0.0 mm 0.01 in0.3 mm
01:39 AM 44.8°F7.1°C 41.2°F5.1°C 87% 11.0 mph WSW17.7 kmh WSW 28.0 mph45.1 kmh 29.28 in991.5 mb 0.00 in0.0 mm 0.00 in0.0 mm 0.01 in0.3 mm
01:44 AM 45.0°F7.2°C 41.3°F5.2°C 87% 12.0 mph WSW19.3 kmh WSW 17.0 mph27.4 kmh 29.28 in991.5 mb 0.00 in0.0 mm 0.00 in0.0 mm 0.01 in0.3 mm
01:49 AM 45.0°F7.2°C 41.0°F5.0°C 86% 10.0 mph WSW16.1 kmh WSW 16.0 mph25.7 kmh 29.28 in991.5 mb 0.00 in0.0 mm 0.00 in0.0 mm 0.01 in0.3 mm
01:54 AM 45.0°F7.2°C 41.0°F5.0°C 86% 14.0 mph W22.5 kmh W 24.0 mph38.6 kmh 29.28 in991.5 mb 0.00 in0.0 mm 0.00 in0.0 mm 0.01 in0.3 mm
01:59 AM 44.8°F7.1°C 41.2°F5.1°C 87% 12.0 mph WSW19.3 kmh WSW 18.0 mph29.0 kmh 29.28 in991.5 mb 0.00 in0.0 mm 0.00 in0.0 mm 0.01 in0.3 mm
02:04 AM 44.8°F7.1°C 41.2°F5.1°C 87% 10.0 mph SW16.1 kmh SW 18.0 mph29.0 kmh 29.28 in991.5 mb 0.00 in0.0 mm 0.00 in0.0 mm 0.01 in0.3 mm
02:09 AM 44.8°F7.1°C 41.2°F5.1°C 87% 9.0 mph WSW14.5 kmh WSW 12.0 mph19.3 kmh 29.28 in991.5 mb 0.00 in0.0 mm 0.00 in0.0 mm 0.01 in0.3 mm
02:14 AM 45.0°F7.2°C 41.0°F5.0°C 86% 12.0 mph W19.3 kmh W 23.0 mph37.0 kmh 29.28 in991.5 mb 0.00 in0.0 mm 0.00 in0.0 mm 0.01 in0.3 mm
02:19 AM 45.0°F7.2°C 41.0°F5.0°C 86% 8.0 mph SW12.9 kmh SW 13.0 mph20.9 kmh 29.28 in991.5 mb 0.00 in0.0 mm 0.00 in0.0 mm 0.01 in0.3 mm
02:24 AM 45.0°F7.2°C 41.0°F5.0°C 86% 12.0 mph WSW19.3 kmh WSW 17.0 mph27.4 kmh 29.27 in991.2 mb 0.00 in0.0 mm 0.00 in0.0 mm 0.01 in0.3 mm
02:29 AM 45.0°F7.2°C 41.0°F5.0°C 86% 9.0 mph SW14.5 kmh SW 14.0 mph22.5 kmh 29.27 in991.2 mb 0.00 in0.0 mm 0.00 in0.0 mm 0.01 in0.3 mm
02:34 AM 45.0°F7.2°C 41.0°F5.0°C 86% 9.0 mph SW14.5 kmh SW 20.0 mph32.2 kmh 29.27 in991.2 mb 0.00 in0.0 mm 0.00 in0.0 mm 0.01 in0.3 mm
02:39 AM 45.0°F7.2°C 41.0°F5.0°C 86% 7.0 mph WSW11.3 kmh WSW 13.0 mph20.9 kmh 29.27 in991.2 mb 0.00 in0.0 mm 0.00 in0.0 mm 0.01 in0.3 mm
02:44 AM 45.0°F7.2°C 41.0°F5.0°C 86% 12.0 mph WSW19.3 kmh WSW 18.0 mph29.0 kmh 29.27 in991.2 mb 0.00 in0.0 mm 0.00 in0.0 mm 0.01 in0.3 mm
02:49 AM 45.0°F7.2°C 41.0°F5.0°C 86% 11.0 mph WSW17.7 kmh WSW 19.0 mph30.6 kmh 29.27 in991.2 mb 0.00 in0.0 mm 0.00 in0.0 mm 0.01 in0.3 mm
02:54 AM 45.0°F7.2°C 41.0°F5.0°C 86% 11.0 mph W17.7 kmh W 18.0 mph29.0 kmh 29.26 in990.9 mb 0.00 in0.0 mm 0.00 in0.0 mm 0.01 in0.3 mm
02:59 AM 45.0°F7.2°C 40.7°F4.8°C 85% 13.0 mph WSW20.9 kmh WSW 19.0 mph30.6 kmh 29.27 in991.2 mb 0.00 in0.0 mm 0.00 in0.0 mm 0.01 in0.3 mm
03:04 AM 45.0°F7.2°C 40.7°F4.8°C 85% 11.0 mph W17.7 kmh W 25.0 mph40.2 kmh 29.26 in990.9 mb 0.00 in0.0 mm 0.00 in0.0 mm 0.01 in0.3 mm
03:09 AM 45.1°F7.3°C 40.9°F4.9°C 85% 9.0 mph WSW14.5 kmh WSW 15.0 mph24.1 kmh 29.26 in990.9 mb 0.00 in0.0 mm 0.00 in0.0 mm 0.01 in0.3 mm
03:14 AM 45.1°F7.3°C 40.9°F4.9°C 85% 11.0 mph W17.7 kmh W 16.0 mph25.7 kmh 29.26 in990.9 mb 0.00 in0.0 mm 0.00 in0.0 mm 0.01 in0.3 mm
03:19 AM 45.1°F7.3°C 40.9°F4.9°C 85% 16.0 mph W25.7 kmh W 24.0 mph38.6 kmh 29.26 in990.9 mb 0.00 in0.0 mm 0.00 in0.0 mm 0.01 in0.3 mm
03:24 AM 45.1°F7.3°C 40.9°F4.9°C 85% 8.0 mph WSW12.9 kmh WSW 12.0 mph19.3 kmh 29.26 in990.9 mb 0.00 in0.0 mm 0.00 in0.0 mm 0.01 in0.3 mm
03:29 AM 45.1°F7.3°C 40.9°F4.9°C 85% 15.0 mph WSW24.1 kmh WSW 24.0 mph38.6 kmh 29.26 in990.9 mb 0.00 in0.0 mm 0.00 in0.0 mm 0.01 in0.3 mm
03:34 AM 45.1°F7.3°C 40.9°F4.9°C 85% 9.0 mph WSW14.5 kmh WSW 15.0 mph24.1 kmh 29.26 in990.9 mb 0.00 in0.0 mm 0.00 in0.0 mm 0.01 in0.3 mm
03:39 AM 45.0°F7.2°C 40.7°F4.8°C 85% 10.0 mph SW16.1 kmh SW 15.0 mph24.1 kmh 29.26 in990.9 mb 0.00 in0.0 mm 0.00 in0.0 mm 0.01 in0.3 mm
03:44 AM 45.0°F7.2°C 40.7°F4.8°C 85% 8.0 mph WSW12.9 kmh WSW 10.0 mph16.1 kmh 29.26 in990.9 mb 0.00 in0.0 mm 0.00 in0.0 mm 0.01 in0.3 mm
03:49 AM 45.0°F7.2°C 40.7°F4.8°C 85% 12.0 mph WSW19.3 kmh WSW 20.0 mph32.2 kmh 29.26 in990.9 mb 0.00 in0.0 mm 0.00 in0.0 mm 0.01 in0.3 mm
03:54 AM 45.0°F7.2°C 40.7°F4.8°C 85% 13.0 mph WSW20.9 kmh WSW 19.0 mph30.6 kmh 29.26 in990.9 mb 0.00 in0.0 mm 0.00 in0.0 mm 0.01 in0.3 mm
03:59 AM 45.0°F7.2°C 41.0°F5.0°C 86% 15.0 mph WSW24.1 kmh WSW 20.0 mph32.2 kmh 29.26 in990.9 mb 0.00 in0.0 mm 0.00 in0.0 mm 0.01 in0.3 mm
04:04 AM 45.0°F7.2°C 40.7°F4.8°C 85% 16.0 mph WSW25.7 kmh WSW 21.0 mph33.8 kmh 29.26 in990.9 mb 0.00 in0.0 mm 0.00 in0.0 mm 0.01 in0.3 mm
04:09 AM 45.0°F7.2°C 40.7°F4.8°C 85% 11.0 mph WSW17.7 kmh WSW 15.0 mph24.1 kmh 29.26 in990.9 mb 0.00 in0.0 mm 0.00 in0.0 mm 0.01 in0.3 mm
04:14 AM 45.0°F7.2°C 40.7°F4.8°C 85% 15.0 mph SW24.1 kmh SW 23.0 mph37.0 kmh 29.26 in990.9 mb 0.00 in0.0 mm 0.00 in0.0 mm 0.01 in0.3 mm
04:19 AM 45.0°F7.2°C 40.7°F4.8°C 85% 14.0 mph W22.5 kmh W 20.0 mph32.2 kmh 29.25 in990.5 mb 0.00 in0.0 mm 0.00 in0.0 mm 0.01 in0.3 mm
04:24 AM 45.0°F7.2°C 40.7°F4.8°C 85% 10.0 mph SW16.1 kmh SW 13.0 mph20.9 kmh 29.25 in990.5 mb 0.00 in0.0 mm 0.00 in0.0 mm 0.01 in0.3 mm
04:29 AM 45.0°F7.2°C 40.7°F4.8°C 85% 13.0 mph WSW20.9 kmh WSW 24.0 mph38.6 kmh 29.25 in990.5 mb 0.00 in0.0 mm 0.00 in0.0 mm 0.01 in0.3 mm
04:34 AM 44.8°F7.1°C 40.6°F4.8°C 85% 12.0 mph WSW19.3 kmh WSW 18.0 mph29.0 kmh 29.25 in990.5 mb 0.00 in0.0 mm 0.00 in0.0 mm 0.01 in0.3 mm
04:39 AM 44.8°F7.1°C 40.6°F4.8°C 85% 14.0 mph WSW22.5 kmh WSW 23.0 mph37.0 kmh 29.25 in990.5 mb 0.00 in0.0 mm 0.00 in0.0 mm 0.01 in0.3 mm
04:44 AM 44.8°F7.1°C 40.9°F4.9°C 86% 12.0 mph WSW19.3 kmh WSW 16.0 mph25.7 kmh 29.25 in990.5 mb 0.00 in0.0 mm 0.00 in0.0 mm 0.01 in0.3 mm
04:49 AM 44.8°F7.1°C 40.9°F4.9°C 86% 12.0 mph WSW19.3 kmh WSW 21.0 mph33.8 kmh 29.25 in990.5 mb 0.00 in0.0 mm 0.00 in0.0 mm 0.01 in0.3 mm
04:54 AM 44.8°F7.1°C 40.6°F4.8°C 85% 9.0 mph WSW14.5 kmh WSW 16.0 mph25.7 kmh 29.25 in990.5 mb 0.00 in0.0 mm 0.00 in0.0 mm 0.01 in0.3 mm
04:59 AM 44.8°F7.1°C 40.6°F4.8°C 85% 10.0 mph WSW16.1 kmh WSW 15.0 mph24.1 kmh 29.24 in990.2 mb 0.00 in0.0 mm 0.00 in0.0 mm 0.01 in0.3 mm
05:04 AM 44.6°F7.0°C 40.4°F4.7°C 85% 9.0 mph WSW14.5 kmh WSW 16.0 mph25.7 kmh 29.24 in990.2 mb 0.00 in0.0 mm 0.00 in0.0 mm 0.01 in0.3 mm
05:09 AM 44.8°F7.1°C 40.6°F4.8°C 85% 8.0 mph SW12.9 kmh SW 14.0 mph22.5 kmh 29.24 in990.2 mb 0.00 in0.0 mm 0.00 in0.0 mm 0.01 in0.3 mm
05:14 AM 44.8°F7.1°C 40.6°F4.8°C 85% 12.0 mph W19.3 kmh W 20.0 mph32.2 kmh 29.25 in990.5 mb 0.00 in0.0 mm 0.00 in0.0 mm 0.01 in0.3 mm
05:19 AM 44.8°F7.1°C 40.6°F4.8°C 85% 13.0 mph WSW20.9 kmh WSW 18.0 mph29.0 kmh 29.24 in990.2 mb 0.00 in0.0 mm 0.00 in0.0 mm 0.01 in0.3 mm
05:24 AM 44.8°F7.1°C 40.6°F4.8°C 85% 10.0 mph SW16.1 kmh SW 16.0 mph25.7 kmh 29.24 in990.2 mb 0.00 in0.0 mm 0.00 in0.0 mm 0.01 in0.3 mm
05:29 AM 44.8°F7.1°C 40.6°F4.8°C 85% 13.0 mph WSW20.9 kmh WSW 20.0 mph32.2 kmh 29.24 in990.2 mb 0.00 in0.0 mm 0.00 in0.0 mm 0.01 in0.3 mm
05:34 AM 44.6°F7.0°C 40.7°F4.8°C 86% 8.0 mph W12.9 kmh W 13.0 mph20.9 kmh 29.23 in989.8 mb 0.00 in0.0 mm 0.00 in0.0 mm 0.01 in0.3 mm
05:39 AM 44.6°F7.0°C 40.7°F4.8°C 86% 11.0 mph WSW17.7 kmh WSW 15.0 mph24.1 kmh 29.23 in989.8 mb 0.00 in0.0 mm 0.00 in0.0 mm 0.01 in0.3 mm
05:44 AM 44.8°F7.1°C 40.6°F4.8°C 85% 12.0 mph W19.3 kmh W 16.0 mph25.7 kmh 29.23 in989.8 mb 0.00 in0.0 mm 0.00 in0.0 mm 0.01 in0.3 mm
05:49 AM 44.8°F7.1°C 40.6°F4.8°C 85% 13.0 mph WSW20.9 kmh WSW 17.0 mph27.4 kmh 29.23 in989.8 mb 0.00 in0.0 mm 0.00 in0.0 mm 0.01 in0.3 mm
05:54 AM 45.0°F7.2°C 40.7°F4.8°C 85% 11.0 mph WSW17.7 kmh WSW 20.0 mph32.2 kmh 29.23 in989.8 mb 0.00 in0.0 mm 0.00 in0.0 mm 0.01 in0.3 mm
05:59 AM 45.0°F7.2°C 40.7°F4.8°C 85% 13.0 mph W20.9 kmh W 20.0 mph32.2 kmh 29.23 in989.8 mb 0.00 in0.0 mm 0.00 in0.0 mm 0.01 in0.3 mm
06:04 AM 44.2°F6.8°C 39.7°F4.3°C 84% 14.0 mph WSW22.5 kmh WSW 20.0 mph32.2 kmh 29.23 in989.8 mb 0.00 in0.0 mm 0.00 in0.0 mm 0.02 in0.5 mm
06:09 AM 44.1°F6.7°C 40.4°F4.7°C 87% 10.0 mph WSW16.1 kmh WSW 17.0 mph27.4 kmh 29.22 in989.5 mb 0.00 in0.0 mm 0.00 in0.0 mm 0.02 in0.5 mm
06:14 AM 44.2°F6.8°C 40.9°F4.9°C 88% 13.0 mph W20.9 kmh W 18.0 mph29.0 kmh 29.22 in989.5 mb 0.00 in0.0 mm 0.00 in0.0 mm 0.02 in0.5 mm
06:19 AM 44.4°F6.9°C 40.8°F4.9°C 87% 9.0 mph SW14.5 kmh SW 19.0 mph30.6 kmh 29.22 in989.5 mb 0.00 in0.0 mm 0.00 in0.0 mm 0.02 in0.5 mm
06:24 AM 44.4°F6.9°C 40.8°F4.9°C 87% 12.0 mph W19.3 kmh W 18.0 mph29.0 kmh 29.23 in989.8 mb 0.00 in0.0 mm 0.00 in0.0 mm 0.02 in0.5 mm
06:29 AM 44.4°F6.9°C 40.8°F4.9°C 87% 14.0 mph W22.5 kmh W 21.0 mph33.8 kmh 29.23 in989.8 mb 0.00 in0.0 mm 0.00 in0.0 mm 0.02 in0.5 mm
06:34 AM 44.6°F7.0°C 40.7°F4.8°C 86% 13.0 mph WSW20.9 kmh WSW 20.0 mph32.2 kmh 29.23 in989.8 mb 0.00 in0.0 mm 0.00 in0.0 mm 0.02 in0.5 mm
06:39 AM 44.4°F6.9°C 40.5°F4.7°C 86% 14.0 mph WSW22.5 kmh WSW 20.0 mph32.2 kmh 29.23 in989.8 mb 0.00 in0.0 mm 0.00 in0.0 mm 0.02 in0.5 mm
06:44 AM 44.4°F6.9°C 40.5°F4.7°C 86% 15.0 mph W24.1 kmh W 21.0 mph33.8 kmh 29.22 in989.5 mb 0.00 in0.0 mm 0.00 in0.0 mm 0.02 in0.5 mm
06:49 AM 44.6°F7.0°C 40.7°F4.8°C 86% 18.0 mph WSW29.0 kmh WSW 26.0 mph41.8 kmh 29.22 in989.5 mb 0.00 in0.0 mm 0.00 in0.0 mm 0.02 in0.5 mm
06:54 AM 44.6°F7.0°C 40.4°F4.7°C 85% 15.0 mph W24.1 kmh W 20.0 mph32.2 kmh 29.22 in989.5 mb 0.00 in0.0 mm 0.00 in0.0 mm 0.02 in0.5 mm
06:59 AM 44.2°F6.8°C 39.1°F3.9°C 82% 19.0 mph WSW30.6 kmh WSW 25.0 mph40.2 kmh 29.23 in989.8 mb 0.01 in0.3 mm 0.10 in2.5 mm 0.04 in1.0 mm
07:04 AM 43.2°F6.2°C 38.4°F3.6°C 83% 16.0 mph W25.7 kmh W 26.0 mph41.8 kmh 29.22 in989.5 mb 0.00 in0.0 mm 0.00 in0.0 mm 0.06 in1.5 mm
07:09 AM 43.2°F6.2°C 39.0°F3.9°C 85% 13.0 mph W20.9 kmh W 18.0 mph29.0 kmh 29.23 in989.8 mb 0.00 in0.0 mm 0.00 in0.0 mm 0.07 in1.8 mm
07:14 AM 42.1°F5.6°C 37.9°F3.3°C 85% 13.0 mph W20.9 kmh W 20.0 mph32.2 kmh 29.23 in989.8 mb 0.01 in0.3 mm 0.10 in2.5 mm 0.09 in2.3 mm
07:19 AM 42.3°F5.7°C 38.7°F3.7°C 87% 12.0 mph WSW19.3 kmh WSW 16.0 mph25.7 kmh 29.22 in989.5 mb 0.00 in0.0 mm 0.00 in0.0 mm 0.09 in2.3 mm
07:24 AM 42.8°F6.0°C 39.5°F4.2°C 88% 12.0 mph W19.3 kmh W 17.0 mph27.4 kmh 29.22 in989.5 mb 0.00 in0.0 mm 0.00 in0.0 mm 0.09 in2.3 mm
07:29 AM 43.0°F6.1°C 39.7°F4.3°C 88% 10.0 mph W16.1 kmh W 16.0 mph25.7 kmh 29.22 in989.5 mb 0.00 in0.0 mm 0.00 in0.0 mm 0.12 in3.0 mm
07:34 AM 42.8°F6.0°C 39.5°F4.2°C 88% 16.0 mph W25.7 kmh W 23.0 mph37.0 kmh 29.22 in989.5 mb 0.00 in0.0 mm 0.00 in0.0 mm 0.12 in3.0 mm
07:39 AM 43.3°F6.3°C 40.0°F4.4°C 88% 13.0 mph W20.9 kmh W 19.0 mph30.6 kmh 29.22 in989.5 mb 0.00 in0.0 mm 0.00 in0.0 mm 0.12 in3.0 mm
07:44 AM 43.9°F6.6°C 40.6°F4.8°C 88% 15.0 mph W24.1 kmh W 26.0 mph41.8 kmh 29.22 in989.5 mb 0.00 in0.0 mm 0.00 in0.0 mm 0.12 in3.0 mm
07:49 AM 43.9°F6.6°C 40.6°F4.8°C 88% 20.0 mph W32.2 kmh W 28.0 mph45.1 kmh 29.23 in989.8 mb 0.01 in0.3 mm 0.10 in2.5 mm 0.13 in3.3 mm
07:54 AM 43.0°F6.1°C 38.8°F3.8°C 85% 21.0 mph NW33.8 kmh NW 31.0 mph49.9 kmh 29.24 in990.2 mb 0.00 in0.0 mm 0.00 in0.0 mm 0.13 in3.3 mm
07:59 AM 40.8°F4.9°C 37.3°F2.9°C 87% 22.0 mph WNW35.4 kmh WNW 32.0 mph51.5 kmh 29.24 in990.2 mb 0.00 in0.0 mm 0.00 in0.0 mm 0.13 in3.3 mm
08:04 AM 39.4°F4.1°C 35.8°F2.1°C 87% 18.0 mph NW29.0 kmh NW 26.0 mph41.8 kmh 29.24 in990.2 mb 0.00 in0.0 mm 0.00 in0.0 mm 0.15 in3.8 mm
08:09 AM 38.7°F3.7°C 36.0°F2.2°C 90% 18.0 mph WNW29.0 kmh WNW 27.0 mph43.5 kmh 29.26 in990.9 mb 0.00 in0.0 mm 0.00 in0.0 mm 0.16 in4.1 mm
08:14 AM 38.7°F3.7°C 36.3°F2.4°C 91% 20.0 mph NW32.2 kmh NW 30.0 mph48.3 kmh 29.26 in990.9 mb 0.00 in0.0 mm 0.00 in0.0 mm 0.17 in4.3 mm
08:19 AM 38.8°F3.8°C 36.7°F2.6°C 92% 16.0 mph WNW25.7 kmh WNW 23.0 mph37.0 kmh 29.26 in990.9 mb 0.00 in0.0 mm 0.00 in0.0 mm 0.19 in4.8 mm
08:24 AM 38.8°F3.8°C 36.4°F2.4°C 91% 12.0 mph WNW19.3 kmh WNW 17.0 mph27.4 kmh 29.25 in990.5 mb 0.00 in0.0 mm 0.00 in0.0 mm 0.20 in5.1 mm
08:29 AM 38.8°F3.8°C 36.7°F2.6°C 92% 12.0 mph W19.3 kmh W 19.0 mph30.6 kmh 29.25 in990.5 mb 0.00 in0.0 mm 0.00 in0.0 mm 0.20 in5.1 mm
08:34 AM 39.0°F3.9°C 36.9°F2.7°C 92% 11.0 mph W17.7 kmh W 13.0 mph20.9 kmh 29.25 in990.5 mb 0.00 in0.0 mm 0.00 in0.0 mm 0.20 in5.1 mm
08:39 AM 39.4°F4.1°C 37.3°F2.9°C 92% 10.0 mph WSW16.1 kmh WSW 14.0 mph22.5 kmh 29.25 in990.5 mb 0.00 in0.0 mm 0.00 in0.0 mm 0.20 in5.1 mm
08:44 AM 39.7°F4.3°C 37.6°F3.1°C 92% 13.0 mph W20.9 kmh W 18.0 mph29.0 kmh 29.25 in990.5 mb 0.00 in0.0 mm 0.00 in0.0 mm 0.20 in5.1 mm
08:49 AM 39.9°F4.4°C 37.5°F3.1°C 91% 17.0 mph NW27.4 kmh NW 27.0 mph43.5 kmh 29.26 in990.9 mb 0.00 in0.0 mm 0.00 in0.0 mm 0.21 in5.3 mm
08:54 AM 39.0°F3.9°C 36.1°F2.3°C 89% 15.0 mph WNW24.1 kmh WNW 21.0 mph33.8 kmh 29.26 in990.9 mb 0.00 in0.0 mm 0.00 in0.0 mm 0.21 in5.3 mm
08:59 AM 39.2°F4.0°C 36.5°F2.5°C 90% 15.0 mph WNW24.1 kmh WNW 28.0 mph45.1 kmh 29.26 in990.9 mb 0.00 in0.0 mm 0.00 in0.0 mm 0.21 in5.3 mm
09:04 AM 39.7°F4.3°C 36.8°F2.7°C 89% 18.0 mph WNW29.0 kmh WNW 26.0 mph41.8 kmh 29.26 in990.9 mb 0.00 in0.0 mm 0.00 in0.0 mm 0.21 in5.3 mm
09:09 AM 40.3°F4.6°C 36.7°F2.6°C 87% 20.0 mph WNW32.2 kmh WNW 27.0 mph43.5 kmh 29.27 in991.2 mb 0.00 in0.0 mm 0.00 in0.0 mm 0.21 in5.3 mm
09:14 AM 40.5°F4.7°C 36.3°F2.4°C 85% 20.0 mph W32.2 kmh W 29.0 mph46.7 kmh 29.27 in991.2 mb 0.00 in0.0 mm 0.00 in0.0 mm 0.21 in5.3 mm
09:19 AM 40.5°F4.7°C 36.3°F2.4°C 85% 20.0 mph W32.2 kmh W 27.0 mph43.5 kmh 29.27 in991.2 mb 0.00 in0.0 mm 0.00 in0.0 mm 0.21 in5.3 mm
09:24 AM 39.7°F4.3°C 35.9°F2.2°C 86% 23.0 mph WNW37.0 kmh WNW 33.0 mph53.1 kmh 29.28 in991.5 mb 0.00 in0.0 mm 0.00 in0.0 mm 0.21 in5.3 mm
09:29 AM 38.8°F3.8°C 35.6°F2.0°C 88% 14.0 mph WNW22.5 kmh WNW 17.0 mph27.4 kmh 29.28 in991.5 mb 0.00 in0.0 mm 0.00 in0.0 mm 0.21 in5.3 mm
09:34 AM 38.1°F3.4°C 35.2°F1.8°C 89% 12.0 mph W19.3 kmh W 22.0 mph35.4 kmh 29.28 in991.5 mb 0.00 in0.0 mm 0.00 in0.0 mm 0.22 in5.6 mm
09:39 AM 37.9°F3.3°C 35.3°F1.8°C 90% 9.0 mph W14.5 kmh W 14.0 mph22.5 kmh 29.28 in991.5 mb 0.00 in0.0 mm 0.00 in0.0 mm 0.22 in5.6 mm
09:44 AM 38.1°F3.4°C 35.7°F2.1°C 91% 10.0 mph W16.1 kmh W 13.0 mph20.9 kmh 29.28 in991.5 mb 0.00 in0.0 mm 0.00 in0.0 mm 0.22 in5.6 mm
09:49 AM 38.7°F3.7°C 36.0°F2.2°C 90% 10.0 mph W16.1 kmh W 17.0 mph27.4 kmh 29.29 in991.9 mb 0.00 in0.0 mm 0.00 in0.0 mm 0.22 in5.6 mm
09:54 AM 39.0°F3.9°C 36.1°F2.3°C 89% 12.0 mph W19.3 kmh W 20.0 mph32.2 kmh 29.29 in991.9 mb 0.00 in0.0 mm 0.00 in0.0 mm 0.22 in5.6 mm
09:59 AM 39.4°F4.1°C 36.1°F2.3°C 88% 8.0 mph W12.9 kmh W 12.0 mph19.3 kmh 29.29 in991.9 mb 0.00 in0.0 mm 0.00 in0.0 mm 0.22 in5.6 mm
10:04 AM 39.6°F4.2°C 36.6°F2.6°C 89% 9.0 mph W14.5 kmh W 12.0 mph19.3 kmh 29.29 in991.9 mb 0.00 in0.0 mm 0.00 in0.0 mm 0.22 in5.6 mm
10:09 AM 39.7°F4.3°C 36.8°F2.7°C 89% 11.0 mph W17.7 kmh W 13.0 mph20.9 kmh 29.29 in991.9 mb 0.00 in0.0 mm 0.00 in0.0 mm 0.22 in5.6 mm
10:14 AM 40.3°F4.6°C 37.6°F3.1°C 90% 12.0 mph WSW19.3 kmh WSW 15.0 mph24.1 kmh 29.29 in991.9 mb 0.00 in0.0 mm 0.00 in0.0 mm 0.22 in5.6 mm
10:19 AM 40.8°F4.9°C 38.1°F3.4°C 90% 13.0 mph W20.9 kmh W 19.0 mph30.6 kmh 29.30 in992.2 mb 0.00 in0.0 mm 0.00 in0.0 mm 0.22 in5.6 mm
10:24 AM 41.5°F5.3°C 38.0°F3.3°C 87% 19.0 mph W30.6 kmh W 29.0 mph46.7 kmh 29.29 in991.9 mb 0.00 in0.0 mm 0.00 in0.0 mm 0.22 in5.6 mm
10:29 AM 42.1°F5.6°C 37.9°F3.3°C 85% 15.0 mph W24.1 kmh W 25.0 mph40.2 kmh 29.29 in991.9 mb 0.00 in0.0 mm 0.00 in0.0 mm 0.22 in5.6 mm
10:34 AM 42.3°F5.7°C 37.8°F3.2°C 84% 22.0 mph WNW35.4 kmh WNW 36.0 mph57.9 kmh 29.30 in992.2 mb 0.00 in0.0 mm 0.00 in0.0 mm 0.22 in5.6 mm
10:39 AM 42.4°F5.8°C 37.0°F2.8°C 81% 23.0 mph W37.0 kmh W 31.0 mph49.9 kmh 29.29 in991.9 mb 0.00 in0.0 mm 0.00 in0.0 mm 0.22 in5.6 mm
10:44 AM 42.6°F5.9°C 37.5°F3.1°C 82% 16.0 mph W25.7 kmh W 21.0 mph33.8 kmh 29.30 in992.2 mb 0.00 in0.0 mm 0.00 in0.0 mm 0.22 in5.6 mm
10:49 AM 42.6°F5.9°C 37.5°F3.1°C 82% 18.0 mph W29.0 kmh W 25.0 mph40.2 kmh 29.30 in992.2 mb 0.00 in0.0 mm 0.00 in0.0 mm 0.22 in5.6 mm
10:54 AM 42.8°F6.0°C 37.4°F3.0°C 81% 15.0 mph W24.1 kmh W 22.0 mph35.4 kmh 29.31 in992.6 mb 0.00 in0.0 mm 0.00 in0.0 mm 0.22 in5.6 mm
10:59 AM 42.8°F6.0°C 37.1°F2.8°C 80% 18.0 mph W29.0 kmh W 27.0 mph43.5 kmh 29.31 in992.6 mb 0.00 in0.0 mm 0.00 in0.0 mm 0.22 in5.6 mm
11:04 AM 43.0°F6.1°C 36.9°F2.7°C 79% 16.0 mph W25.7 kmh W 27.0 mph43.5 kmh 29.31 in992.6 mb 0.00 in0.0 mm 0.00 in0.0 mm 0.22 in5.6 mm
11:09 AM 43.0°F6.1°C 36.9°F2.7°C 79% 17.0 mph W27.4 kmh W 28.0 mph45.1 kmh 29.31 in992.6 mb 0.00 in0.0 mm 0.00 in0.0 mm 0.22 in5.6 mm
11:14 AM 43.0°F6.1°C 36.6°F2.6°C 78% 19.0 mph W30.6 kmh W 28.0 mph45.1 kmh 29.32 in992.9 mb 0.00 in0.0 mm 0.00 in0.0 mm 0.22 in5.6 mm
11:19 AM 43.0°F6.1°C 36.9°F2.7°C 79% 15.0 mph W24.1 kmh W 29.0 mph46.7 kmh 29.32 in992.9 mb 0.00 in0.0 mm 0.00 in0.0 mm 0.22 in5.6 mm
11:24 AM 43.0°F6.1°C 36.3°F2.4°C 77% 22.0 mph W35.4 kmh W 29.0 mph46.7 kmh 29.32 in992.9 mb 0.00 in0.0 mm 0.00 in0.0 mm 0.22 in5.6 mm
11:29 AM 43.2°F6.2°C 36.5°F2.5°C 77% 20.0 mph W32.2 kmh W 31.0 mph49.9 kmh 29.32 in992.9 mb 0.00 in0.0 mm 0.00 in0.0 mm 0.22 in5.6 mm
11:34 AM 43.2°F6.2°C 36.8°F2.7°C 78% 18.0 mph WNW29.0 kmh WNW 26.0 mph41.8 kmh 29.32 in992.9 mb 0.00 in0.0 mm 0.00 in0.0 mm 0.22 in5.6 mm
11:39 AM 43.0°F6.1°C 36.0°F2.2°C 76% 21.0 mph W33.8 kmh W 29.0 mph46.7 kmh 29.32 in992.9 mb 0.00 in0.0 mm 0.00 in0.0 mm 0.22 in5.6 mm
11:44 AM 43.2°F6.2°C 36.1°F2.3°C 76% 15.0 mph W24.1 kmh W 23.0 mph37.0 kmh 29.32 in992.9 mb 0.00 in0.0 mm 0.00 in0.0 mm 0.22 in5.6 mm
11:49 AM 43.2°F6.2°C 36.5°F2.5°C 77% 15.0 mph W24.1 kmh W 22.0 mph35.4 kmh 29.32 in992.9 mb 0.00 in0.0 mm 0.00 in0.0 mm 0.22 in5.6 mm
11:54 AM 43.2°F6.2°C 36.8°F2.7°C 78% 18.0 mph W29.0 kmh W 26.0 mph41.8 kmh 29.33 in993.2 mb 0.00 in0.0 mm 0.00 in0.0 mm 0.22 in5.6 mm
11:59 AM 42.3°F5.7°C 35.9°F2.2°C 78% 14.0 mph W22.5 kmh W 21.0 mph33.8 kmh 29.33 in993.2 mb 0.00 in0.0 mm 0.00 in0.0 mm 0.22 in5.6 mm
12:04 PM 41.5°F5.3°C 35.8°F2.1°C 80% 18.0 mph W29.0 kmh W 32.0 mph51.5 kmh 29.33 in993.2 mb 0.00 in0.0 mm 0.00 in0.0 mm 0.23 in5.8 mm
12:09 PM 41.7°F5.4°C 36.6°F2.6°C 82% 12.0 mph W19.3 kmh W 17.0 mph27.4 kmh 29.33 in993.2 mb 0.00 in0.0 mm 0.00 in0.0 mm 0.23 in5.8 mm
12:14 PM 42.1°F5.6°C 36.7°F2.6°C 81% 17.0 mph W27.4 kmh W 29.0 mph46.7 kmh 29.33 in993.2 mb 0.00 in0.0 mm 0.00 in0.0 mm 0.23 in5.8 mm
12:19 PM 42.3°F5.7°C 36.5°F2.5°C 80% 14.0 mph WNW22.5 kmh WNW 18.0 mph29.0 kmh 29.33 in993.2 mb 0.00 in0.0 mm 0.00 in0.0 mm 0.23 in5.8 mm
12:24 PM 42.4°F5.8°C 36.7°F2.6°C 80% 22.0 mph W35.4 kmh W 30.0 mph48.3 kmh 29.33 in993.2 mb 0.00 in0.0 mm 0.00 in0.0 mm 0.23 in5.8 mm
12:29 PM 42.8°F6.0°C 36.4°F2.4°C 78% 21.0 mph W33.8 kmh W 32.0 mph51.5 kmh 29.32 in992.9 mb 0.00 in0.0 mm 0.00 in0.0 mm 0.23 in5.8 mm
12:34 PM 43.2°F6.2°C 36.8°F2.7°C 78% 15.0 mph W24.1 kmh W 23.0 mph37.0 kmh 29.33 in993.2 mb 0.00 in0.0 mm 0.00 in0.0 mm 0.23 in5.8 mm
12:39 PM 43.5°F6.4°C 37.5°F3.1°C 79% 15.0 mph W24.1 kmh W 21.0 mph33.8 kmh 29.33 in993.2 mb 0.00 in0.0 mm 0.00 in0.0 mm 0.23 in5.8 mm
12:44 PM 43.3°F6.3°C 36.6°F2.6°C 77% 14.0 mph WSW22.5 kmh WSW 21.0 mph33.8 kmh 29.33 in993.2 mb 0.00 in0.0 mm 0.00 in0.0 mm 0.23 in5.8 mm
12:49 PM 43.2°F6.2°C 36.1°F2.3°C 76% 17.0 mph W27.4 kmh W 25.0 mph40.2 kmh 29.33 in993.2 mb 0.00 in0.0 mm 0.00 in0.0 mm 0.23 in5.8 mm
12:54 PM 43.2°F6.2°C 36.1°F2.3°C 76% 20.0 mph W32.2 kmh W 29.0 mph46.7 kmh 29.33 in993.2 mb 0.00 in0.0 mm 0.00 in0.0 mm 0.23 in5.8 mm
12:59 PM 43.2°F6.2°C 36.1°F2.3°C 76% 17.0 mph W27.4 kmh W 23.0 mph37.0 kmh 29.33 in993.2 mb 0.00 in0.0 mm 0.00 in0.0 mm 0.23 in5.8 mm
01:04 PM 43.2°F6.2°C 36.1°F2.3°C 76% 18.0 mph W29.0 kmh W 28.0 mph45.1 kmh 29.33 in993.2 mb 0.00 in0.0 mm 0.00 in0.0 mm 0.23 in5.8 mm
01:09 PM 43.0°F6.1°C 36.0°F2.2°C 76% 18.0 mph W29.0 kmh W 25.0 mph40.2 kmh 29.33 in993.2 mb 0.00 in0.0 mm 0.00 in0.0 mm 0.23 in5.8 mm
01:14 PM 43.2°F6.2°C 36.1°F2.3°C 76% 17.0 mph W27.4 kmh W 28.0 mph45.1 kmh 29.33 in993.2 mb 0.00 in0.0 mm 0.00 in0.0 mm 0.23 in5.8 mm
01:19 PM 43.2°F6.2°C 35.8°F2.1°C 75% 15.0 mph W24.1 kmh W 26.0 mph41.8 kmh 29.33 in993.2 mb 0.00 in0.0 mm 0.00 in0.0 mm 0.23 in5.8 mm
01:24 PM 43.3°F6.3°C 36.3°F2.4°C 76% 13.0 mph WNW20.9 kmh WNW 20.0 mph32.2 kmh 29.33 in993.2 mb 0.00 in0.0 mm 0.00 in0.0 mm 0.23 in5.8 mm
01:29 PM 43.3°F6.3°C 35.3°F1.8°C 73% 22.0 mph W35.4 kmh W 36.0 mph57.9 kmh 29.34 in993.6 mb 0.01 in0.3 mm 0.10 in2.5 mm 0.24 in6.1 mm
01:34 PM 43.3°F6.3°C 35.6°F2.0°C 74% 18.0 mph W29.0 kmh W 27.0 mph43.5 kmh 29.34 in993.6 mb 0.00 in0.0 mm 0.00 in0.0 mm 0.24 in6.1 mm
01:39 PM 43.3°F6.3°C 35.6°F2.0°C 74% 15.0 mph W24.1 kmh W 23.0 mph37.0 kmh 29.33 in993.2 mb 0.00 in0.0 mm 0.00 in0.0 mm 0.24 in6.1 mm
01:44 PM 43.3°F6.3°C 35.6°F2.0°C 74% 16.0 mph W25.7 kmh W 22.0 mph35.4 kmh 29.33 in993.2 mb 0.00 in0.0 mm 0.00 in0.0 mm 0.24 in6.1 mm
01:49 PM 43.5°F6.4°C 36.5°F2.5°C 76% 14.0 mph W22.5 kmh W 22.0 mph35.4 kmh 29.34 in993.6 mb 0.00 in0.0 mm 0.00 in0.0 mm 0.24 in6.1 mm
01:54 PM 43.7°F6.5°C 36.6°F2.6°C 76% 16.0 mph WSW25.7 kmh WSW 23.0 mph37.0 kmh 29.33 in993.2 mb 0.00 in0.0 mm 0.00 in0.0 mm 0.24 in6.1 mm
01:59 PM 43.9°F6.6°C 36.5°F2.5°C 75% 16.0 mph W25.7 kmh W 21.0 mph33.8 kmh 29.33 in993.2 mb 0.00 in0.0 mm 0.00 in0.0 mm 0.24 in6.1 mm
02:04 PM 43.5°F6.4°C 35.8°F2.1°C 74% 19.0 mph W30.6 kmh W 32.0 mph51.5 kmh 29.33 in993.2 mb 0.00 in0.0 mm 0.00 in0.0 mm 0.24 in6.1 mm
02:09 PM 43.7°F6.5°C 36.3°F2.4°C 75% 15.0 mph W24.1 kmh W 21.0 mph33.8 kmh 29.33 in993.2 mb 0.00 in0.0 mm 0.00 in0.0 mm 0.24 in6.1 mm
02:14 PM 43.9°F6.6°C 36.1°F2.3°C 74% 12.0 mph W19.3 kmh W 17.0 mph27.4 kmh 29.32 in992.9 mb 0.00 in0.0 mm 0.00 in0.0 mm 0.24 in6.1 mm
02:19 PM 43.9°F6.6°C 36.5°F2.5°C 75% 16.0 mph W25.7 kmh W 22.0 mph35.4 kmh 29.33 in993.2 mb 0.00 in0.0 mm 0.00 in0.0 mm 0.24 in6.1 mm
02:24 PM 43.9°F6.6°C 36.5°F2.5°C 75% 17.0 mph W27.4 kmh W 24.0 mph38.6 kmh 29.32 in992.9 mb 0.00 in0.0 mm 0.00 in0.0 mm 0.24 in6.1 mm
02:29 PM 43.9°F6.6°C 36.5°F2.5°C 75% 15.0 mph WSW24.1 kmh WSW 23.0 mph37.0 kmh 29.33 in993.2 mb 0.00 in0.0 mm 0.00 in0.0 mm 0.24 in6.1 mm
02:34 PM 43.9°F6.6°C 36.1°F2.3°C 74% 16.0 mph W25.7 kmh W 23.0 mph37.0 kmh 29.32 in992.9 mb 0.00 in0.0 mm 0.00 in0.0 mm 0.24 in6.1 mm
02:39 PM 43.5°F6.4°C 35.8°F2.1°C 74% 14.0 mph W22.5 kmh W 18.0 mph29.0 kmh 29.33 in993.2 mb 0.00 in0.0 mm 0.00 in0.0 mm 0.24 in6.1 mm
02:44 PM 43.3°F6.3°C 35.6°F2.0°C 74% 13.0 mph W20.9 kmh W 20.0 mph32.2 kmh 29.33 in993.2 mb 0.00 in0.0 mm 0.00 in0.0 mm 0.24 in6.1 mm
02:49 PM 43.5°F6.4°C 35.8°F2.1°C 74% 10.0 mph WSW16.1 kmh WSW 14.0 mph22.5 kmh 29.33 in993.2 mb 0.00 in0.0 mm 0.00 in0.0 mm 0.24 in6.1 mm
02:54 PM 43.5°F6.4°C 36.1°F2.3°C 75% 17.0 mph W27.4 kmh W 24.0 mph38.6 kmh 29.33 in993.2 mb 0.00 in0.0 mm 0.00 in0.0 mm 0.24 in6.1 mm
02:59 PM 43.7°F6.5°C 36.3°F2.4°C 75% 16.0 mph WSW25.7 kmh WSW 22.0 mph35.4 kmh 29.33 in993.2 mb 0.00 in0.0 mm 0.00 in0.0 mm 0.24 in6.1 mm
03:04 PM 43.7°F6.5°C 36.0°F2.2°C 74% 17.0 mph W27.4 kmh W 25.0 mph40.2 kmh 29.33 in993.2 mb 0.00 in0.0 mm 0.00 in0.0 mm 0.24 in6.1 mm
03:09 PM 43.7°F6.5°C 36.0°F2.2°C 74% 10.0 mph W16.1 kmh W 14.0 mph22.5 kmh 29.33 in993.2 mb 0.00 in0.0 mm 0.00 in0.0 mm 0.24 in6.1 mm
03:14 PM 43.5°F6.4°C 35.8°F2.1°C 74% 16.0 mph WSW25.7 kmh WSW 22.0 mph35.4 kmh 29.33 in993.2 mb 0.00 in0.0 mm 0.00 in0.0 mm 0.24 in6.1 mm
03:19 PM 43.3°F6.3°C 35.6°F2.0°C 74% 17.0 mph W27.4 kmh W 31.0 mph49.9 kmh 29.33 in993.2 mb 0.00 in0.0 mm 0.00 in0.0 mm 0.24 in6.1 mm
03:24 PM 43.2°F6.2°C 35.1°F1.7°C 73% 18.0 mph W29.0 kmh W 23.0 mph37.0 kmh 29.33 in993.2 mb 0.00 in0.0 mm 0.00 in0.0 mm 0.24 in6.1 mm
03:29 PM 43.3°F6.3°C 34.9°F1.6°C 72% 17.0 mph W27.4 kmh W 26.0 mph41.8 kmh 29.33 in993.2 mb 0.00 in0.0 mm 0.00 in0.0 mm 0.24 in6.1 mm
03:34 PM 43.5°F6.4°C 35.5°F1.9°C 73% 16.0 mph W25.7 kmh W 23.0 mph37.0 kmh 29.33 in993.2 mb 0.00 in0.0 mm 0.00 in0.0 mm 0.24 in6.1 mm
03:39 PM 43.3°F6.3°C 35.3°F1.8°C 73% 17.0 mph W27.4 kmh W 25.0 mph40.2 kmh 29.33 in993.2 mb 0.00 in0.0 mm 0.00 in0.0 mm 0.24 in6.1 mm
03:44 PM 42.8°F6.0°C 34.8°F1.6°C 73% 13.0 mph WSW20.9 kmh WSW 16.0 mph25.7 kmh 29.33 in993.2 mb 0.00 in0.0 mm 0.00 in0.0 mm 0.24 in6.1 mm
03:49 PM 41.7°F5.4°C 34.7°F1.5°C 76% 11.0 mph W17.7 kmh W 17.0 mph27.4 kmh 29.33 in993.2 mb 0.00 in0.0 mm 0.00 in0.0 mm 0.24 in6.1 mm
03:54 PM 41.5°F5.3°C 35.2°F1.8°C 78% 11.0 mph WSW17.7 kmh WSW 15.0 mph24.1 kmh 29.33 in993.2 mb 0.00 in0.0 mm 0.00 in0.0 mm 0.24 in6.1 mm
03:59 PM 42.1°F5.6°C 36.1°F2.3°C 79% 9.0 mph W14.5 kmh W 15.0 mph24.1 kmh 29.33 in993.2 mb 0.00 in0.0 mm 0.00 in0.0 mm 0.24 in6.1 mm
04:04 PM 42.3°F5.7°C 36.2°F2.3°C 79% 9.0 mph W14.5 kmh W 14.0 mph22.5 kmh 29.33 in993.2 mb 0.00 in0.0 mm 0.00 in0.0 mm 0.24 in6.1 mm
04:09 PM 42.4°F5.8°C 35.8°F2.1°C 77% 15.0 mph W24.1 kmh W 20.0 mph32.2 kmh 29.33 in993.2 mb 0.00 in0.0 mm 0.00 in0.0 mm 0.24 in6.1 mm
04:14 PM 42.8°F6.0°C 35.4°F1.9°C 75% 15.0 mph WSW24.1 kmh WSW 25.0 mph40.2 kmh 29.33 in993.2 mb 0.00 in0.0 mm 0.00 in0.0 mm 0.24 in6.1 mm
04:19 PM 43.0°F6.1°C 35.3°F1.8°C 74% 16.0 mph W25.7 kmh W 24.0 mph38.6 kmh 29.34 in993.6 mb 0.00 in0.0 mm 0.00 in0.0 mm 0.24 in6.1 mm
04:24 PM 43.0°F6.1°C 35.6°F2.0°C 75% 10.0 mph WSW16.1 kmh WSW 13.0 mph20.9 kmh 29.34 in993.6 mb 0.00 in0.0 mm 0.00 in0.0 mm 0.24 in6.1 mm
04:29 PM 42.8°F6.0°C 35.4°F1.9°C 75% 11.0 mph W17.7 kmh W 17.0 mph27.4 kmh 29.34 in993.6 mb 0.00 in0.0 mm 0.00 in0.0 mm 0.24 in6.1 mm
04:34 PM 42.6°F5.9°C 35.6°F2.0°C 76% 16.0 mph W25.7 kmh W 23.0 mph37.0 kmh 29.34 in993.6 mb 0.00 in0.0 mm 0.00 in0.0 mm 0.24 in6.1 mm
04:39 PM 43.0°F6.1°C 36.3°F2.4°C 77% 16.0 mph W25.7 kmh W 22.0 mph35.4 kmh 29.34 in993.6 mb 0.00 in0.0 mm 0.00 in0.0 mm 0.24 in6.1 mm
04:44 PM 42.8°F6.0°C 35.1°F1.7°C 74% 14.0 mph WSW22.5 kmh WSW 21.0 mph33.8 kmh 29.34 in993.6 mb 0.00 in0.0 mm 0.00 in0.0 mm 0.24 in6.1 mm
04:49 PM 42.8°F6.0°C 35.1°F1.7°C 74% 16.0 mph W25.7 kmh W 25.0 mph40.2 kmh 29.34 in993.6 mb 0.00 in0.0 mm 0.00 in0.0 mm 0.24 in6.1 mm
04:54 PM 42.8°F6.0°C 35.1°F1.7°C 74% 17.0 mph W27.4 kmh W 22.0 mph35.4 kmh 29.33 in993.2 mb 0.00 in0.0 mm 0.00 in0.0 mm 0.24 in6.1 mm
04:59 PM 42.8°F6.0°C 35.1°F1.7°C 74% 16.0 mph W25.7 kmh W 21.0 mph33.8 kmh 29.33 in993.2 mb 0.00 in0.0 mm 0.00 in0.0 mm 0.24 in6.1 mm
05:04 PM 42.8°F6.0°C 35.4°F1.9°C 75% 14.0 mph W22.5 kmh W 22.0 mph35.4 kmh 29.33 in993.2 mb 0.00 in0.0 mm 0.00 in0.0 mm 0.24 in6.1 mm
05:09 PM 42.8°F6.0°C 35.1°F1.7°C 74% 9.0 mph WSW14.5 kmh WSW 16.0 mph25.7 kmh 29.34 in993.6 mb 0.00 in0.0 mm 0.00 in0.0 mm 0.24 in6.1 mm
05:14 PM 42.8°F6.0°C 35.1°F1.7°C 74% 12.0 mph WSW19.3 kmh WSW 17.0 mph27.4 kmh 29.34 in993.6 mb 0.00 in0.0 mm 0.00 in0.0 mm 0.24 in6.1 mm
05:19 PM 43.0°F6.1°C 35.6°F2.0°C 75% 17.0 mph WSW27.4 kmh WSW 23.0 mph37.0 kmh 29.33 in993.2 mb 0.00 in0.0 mm 0.00 in0.0 mm 0.24 in6.1 mm
05:24 PM 43.0°F6.1°C 35.6°F2.0°C 75% 14.0 mph WSW22.5 kmh WSW 21.0 mph33.8 kmh 29.34 in993.6 mb 0.00 in0.0 mm 0.00 in0.0 mm 0.24 in6.1 mm
05:29 PM 43.0°F6.1°C 35.6°F2.0°C 75% 17.0 mph W27.4 kmh W 22.0 mph35.4 kmh 29.33 in993.2 mb 0.00 in0.0 mm 0.00 in0.0 mm 0.24 in6.1 mm
05:34 PM 43.0°F6.1°C 35.6°F2.0°C 75% 18.0 mph WSW29.0 kmh WSW 27.0 mph43.5 kmh 29.33 in993.2 mb 0.00 in0.0 mm 0.00 in0.0 mm 0.24 in6.1 mm
05:39 PM 42.8°F6.0°C 35.1°F1.7°C 74% 16.0 mph W25.7 kmh W 25.0 mph40.2 kmh 29.33 in993.2 mb 0.00 in0.0 mm 0.00 in0.0 mm 0.24 in6.1 mm
05:44 PM 43.0°F6.1°C 35.3°F1.8°C 74% 16.0 mph W25.7 kmh W 23.0 mph37.0 kmh 29.33 in993.2 mb 0.00 in0.0 mm 0.00 in0.0 mm 0.24 in6.1 mm
05:49 PM 42.8°F6.0°C 34.8°F1.6°C 73% 14.0 mph WSW22.5 kmh WSW 19.0 mph30.6 kmh 29.33 in993.2 mb 0.00 in0.0 mm 0.00 in0.0 mm 0.24 in6.1 mm
05:54 PM 42.8°F6.0°C 34.8°F1.6°C 73% 13.0 mph W20.9 kmh W 19.0 mph30.6 kmh 29.33 in993.2 mb 0.00 in0.0 mm 0.00 in0.0 mm 0.24 in6.1 mm
05:59 PM 42.8°F6.0°C 35.1°F1.7°C 74% 12.0 mph W19.3 kmh W 17.0 mph27.4 kmh 29.32 in992.9 mb 0.00 in0.0 mm 0.00 in0.0 mm 0.24 in6.1 mm
06:04 PM 43.0°F6.1°C 35.6°F2.0°C 75% 11.0 mph W17.7 kmh W 16.0 mph25.7 kmh 29.33 in993.2 mb 0.00 in0.0 mm 0.00 in0.0 mm 0.24 in6.1 mm
06:09 PM 42.1°F5.6°C 34.7°F1.5°C 75% 11.0 mph W17.7 kmh W 14.0 mph22.5 kmh 29.33 in993.2 mb 0.00 in0.0 mm 0.00 in0.0 mm 0.24 in6.1 mm
06:14 PM 41.4°F5.2°C 35.0°F1.7°C 78% 6.0 mph WNW9.7 kmh WNW 9.0 mph14.5 kmh 29.32 in992.9 mb 0.00 in0.0 mm 0.00 in0.0 mm 0.24 in6.1 mm
06:19 PM 41.7°F5.4°C 35.4°F1.9°C 78% 13.0 mph W20.9 kmh W 18.0 mph29.0 kmh 29.32 in992.9 mb 0.00 in0.0 mm 0.00 in0.0 mm 0.24 in6.1 mm
06:24 PM 42.3°F5.7°C 35.3°F1.8°C 76% 11.0 mph W17.7 kmh W 14.0 mph22.5 kmh 29.32 in992.9 mb 0.00 in0.0 mm 0.00 in0.0 mm 0.24 in6.1 mm
06:29 PM 42.4°F5.8°C 35.1°F1.7°C 75% 15.0 mph W24.1 kmh W 20.0 mph32.2 kmh 29.32 in992.9 mb 0.00 in0.0 mm 0.00 in0.0 mm 0.24 in6.1 mm
06:34 PM 42.4°F5.8°C 34.8°F1.6°C 74% 13.0 mph W20.9 kmh W 18.0 mph29.0 kmh 29.32 in992.9 mb 0.00 in0.0 mm 0.00 in0.0 mm 0.25 in6.4 mm
06:39 PM 42.4°F5.8°C 35.4°F1.9°C 76% 15.0 mph W24.1 kmh W 25.0 mph40.2 kmh 29.31 in992.6 mb 0.00 in0.0 mm 0.00 in0.0 mm 0.25 in6.4 mm
06:44 PM 42.6°F5.9°C 34.9°F1.6°C 74% 12.0 mph W19.3 kmh W 20.0 mph32.2 kmh 29.31 in992.6 mb 0.00 in0.0 mm 0.00 in0.0 mm 0.25 in6.4 mm
06:49 PM 42.6°F5.9°C 35.3°F1.8°C 75% 12.0 mph WSW19.3 kmh WSW 16.0 mph25.7 kmh 29.31 in992.6 mb 0.00 in0.0 mm 0.00 in0.0 mm 0.25 in6.4 mm
06:54 PM 42.4°F5.8°C 35.1°F1.7°C 75% 12.0 mph WSW19.3 kmh WSW 17.0 mph27.4 kmh 29.31 in992.6 mb 0.00 in0.0 mm 0.00 in0.0 mm 0.25 in6.4 mm
06:59 PM 42.4°F5.8°C 34.8°F1.6°C 74% 12.0 mph W19.3 kmh W 17.0 mph27.4 kmh 29.31 in992.6 mb 0.00 in0.0 mm 0.00 in0.0 mm 0.25 in6.4 mm
07:04 PM 42.6°F5.9°C 34.6°F1.4°C 73% 10.0 mph WSW16.1 kmh WSW 21.0 mph33.8 kmh 29.31 in992.6 mb 0.00 in0.0 mm 0.00 in0.0 mm 0.25 in6.4 mm
07:09 PM 42.6°F5.9°C 34.9°F1.6°C 74% 12.0 mph W19.3 kmh W 16.0 mph25.7 kmh 29.31 in992.6 mb 0.00 in0.0 mm 0.00 in0.0 mm 0.25 in6.4 mm
07:14 PM 42.4°F5.8°C 35.1°F1.7°C 75% 10.0 mph W16.1 kmh W 15.0 mph24.1 kmh 29.31 in992.6 mb 0.00 in0.0 mm 0.00 in0.0 mm 0.25 in6.4 mm
07:19 PM 42.4°F5.8°C 35.1°F1.7°C 75% 10.0 mph WSW16.1 kmh WSW 16.0 mph25.7 kmh 29.31 in992.6 mb 0.00 in0.0 mm 0.00 in0.0 mm 0.25 in6.4 mm
07:24 PM 42.3°F5.7°C 34.9°F1.6°C 75% 10.0 mph SW16.1 kmh SW 18.0 mph29.0 kmh 29.31 in992.6 mb 0.00 in0.0 mm 0.00 in0.0 mm 0.25 in6.4 mm
07:29 PM 42.4°F5.8°C 34.4°F1.3°C 73% 12.0 mph W19.3 kmh W 16.0 mph25.7 kmh 29.31 in992.6 mb 0.00 in0.0 mm 0.00 in0.0 mm 0.25 in6.4 mm
07:34 PM 42.4°F5.8°C 34.4°F1.3°C 73% 14.0 mph WSW22.5 kmh WSW 20.0 mph32.2 kmh 29.31 in992.6 mb 0.00 in0.0 mm 0.00 in0.0 mm 0.25 in6.4 mm
07:39 PM 42.4°F5.8°C 34.8°F1.6°C 74% 14.0 mph W22.5 kmh W 20.0 mph32.2 kmh 29.30 in992.2 mb 0.00 in0.0 mm 0.00 in0.0 mm 0.25 in6.4 mm
07:44 PM 42.4°F5.8°C 34.8°F1.6°C 74% 10.0 mph W16.1 kmh W 14.0 mph22.5 kmh 29.31 in992.6 mb 0.00 in0.0 mm 0.00 in0.0 mm 0.25 in6.4 mm
07:49 PM 42.4°F5.8°C 35.1°F1.7°C 75% 9.0 mph W14.5 kmh W 15.0 mph24.1 kmh 29.30 in992.2 mb 0.00 in0.0 mm 0.00 in0.0 mm 0.25 in6.4 mm
07:54 PM 42.6°F5.9°C 34.6°F1.4°C 73% 13.0 mph W20.9 kmh W 18.0 mph29.0 kmh 29.31 in992.6 mb 0.00 in0.0 mm 0.00 in0.0 mm 0.25 in6.4 mm
07:59 PM 42.8°F6.0°C 34.8°F1.6°C 73% 15.0 mph WSW24.1 kmh WSW 23.0 mph37.0 kmh 29.31 in992.6 mb 0.00 in0.0 mm 0.00 in0.0 mm 0.25 in6.4 mm
08:04 PM 43.0°F6.1°C 34.2°F1.2°C 71% 15.0 mph W24.1 kmh W 26.0 mph41.8 kmh 29.31 in992.6 mb 0.00 in0.0 mm 0.00 in0.0 mm 0.25 in6.4 mm
08:09 PM 43.2°F6.2°C 33.7°F0.9°C 69% 10.0 mph WSW16.1 kmh WSW 18.0 mph29.0 kmh 29.31 in992.6 mb 0.00 in0.0 mm 0.00 in0.0 mm 0.25 in6.4 mm
08:14 PM 43.0°F6.1°C 33.5°F0.8°C 69% 14.0 mph W22.5 kmh W 19.0 mph30.6 kmh 29.31 in992.6 mb 0.00 in0.0 mm 0.00 in0.0 mm 0.25 in6.4 mm
08:19 PM 43.0°F6.1°C 33.5°F0.8°C 69% 11.0 mph W17.7 kmh W 20.0 mph32.2 kmh 29.30 in992.2 mb 0.00 in0.0 mm 0.00 in0.0 mm 0.25 in6.4 mm
08:24 PM 43.0°F6.1°C 34.2°F1.2°C 71% 9.0 mph W14.5 kmh W 14.0 mph22.5 kmh 29.30 in992.2 mb 0.00 in0.0 mm 0.00 in0.0 mm 0.25 in6.4 mm
08:29 PM 43.0°F6.1°C 34.9°F1.6°C 73% 10.0 mph WSW16.1 kmh WSW 14.0 mph22.5 kmh 29.30 in992.2 mb 0.00 in0.0 mm 0.00 in0.0 mm 0.25 in6.4 mm
08:34 PM 43.2°F6.2°C 35.1°F1.7°C 73% 8.0 mph WSW12.9 kmh WSW 13.0 mph20.9 kmh 29.30 in992.2 mb 0.00 in0.0 mm 0.00 in0.0 mm 0.25 in6.4 mm
08:39 PM 43.2°F6.2°C 34.8°F1.6°C 72% 9.0 mph WSW14.5 kmh WSW 14.0 mph22.5 kmh 29.30 in992.2 mb 0.00 in0.0 mm 0.00 in0.0 mm 0.25 in6.4 mm
08:44 PM 43.0°F6.1°C 34.9°F1.6°C 73% 11.0 mph WSW17.7 kmh WSW 19.0 mph30.6 kmh 29.29 in991.9 mb 0.00 in0.0 mm 0.00 in0.0 mm 0.25 in6.4 mm
08:49 PM 43.0°F6.1°C 35.3°F1.8°C 74% 5.0 mph W8.0 kmh W 9.0 mph14.5 kmh 29.29 in991.9 mb 0.00 in0.0 mm 0.00 in0.0 mm 0.25 in6.4 mm
08:54 PM 43.0°F6.1°C 35.3°F1.8°C 74% 13.0 mph W20.9 kmh W 18.0 mph29.0 kmh 29.29 in991.9 mb 0.00 in0.0 mm 0.00 in0.0 mm 0.25 in6.4 mm
08:59 PM 43.2°F6.2°C 35.1°F1.7°C 73% 10.0 mph W16.1 kmh W 20.0 mph32.2 kmh 29.29 in991.9 mb 0.00 in0.0 mm 0.00 in0.0 mm 0.25 in6.4 mm
09:04 PM 43.2°F6.2°C 35.1°F1.7°C 73% 9.0 mph WSW14.5 kmh WSW 17.0 mph27.4 kmh 29.29 in991.9 mb 0.00 in0.0 mm 0.00 in0.0 mm 0.25 in6.4 mm
09:09 PM 43.2°F6.2°C 35.1°F1.7°C 73% 10.0 mph W16.1 kmh W 18.0 mph29.0 kmh 29.29 in991.9 mb 0.00 in0.0 mm 0.00 in0.0 mm 0.25 in6.4 mm
09:14 PM 43.2°F6.2°C 35.1°F1.7°C 73% 14.0 mph W22.5 kmh W 24.0 mph38.6 kmh 29.29 in991.9 mb 0.00 in0.0 mm 0.00 in0.0 mm 0.25 in6.4 mm
09:19 PM 43.2°F6.2°C 35.5°F1.9°C 74% 14.0 mph WSW22.5 kmh WSW 21.0 mph33.8 kmh 29.29 in991.9 mb 0.00 in0.0 mm 0.00 in0.0 mm 0.25 in6.4 mm
09:24 PM 43.2°F6.2°C 35.5°F1.9°C 74% 16.0 mph WSW25.7 kmh WSW 27.0 mph43.5 kmh 29.29 in991.9 mb 0.00 in0.0 mm 0.00 in0.0 mm 0.25 in6.4 mm
09:29 PM 43.2°F6.2°C 35.5°F1.9°C 74% 10.0 mph W16.1 kmh W 14.0 mph22.5 kmh 29.29 in991.9 mb 0.00 in0.0 mm 0.00 in0.0 mm 0.25 in6.4 mm
09:34 PM 43.0°F6.1°C 35.3°F1.8°C 74% 12.0 mph W19.3 kmh W 19.0 mph30.6 kmh 29.29 in991.9 mb 0.00 in0.0 mm 0.00 in0.0 mm 0.25 in6.4 mm
09:39 PM 43.2°F6.2°C 35.1°F1.7°C 73% 14.0 mph W22.5 kmh W 19.0 mph30.6 kmh 29.29 in991.9 mb 0.00 in0.0 mm 0.00 in0.0 mm 0.25 in6.4 mm
09:44 PM 43.2°F6.2°C 34.8°F1.6°C 72% 14.0 mph WSW22.5 kmh WSW 22.0 mph35.4 kmh 29.29 in991.9 mb 0.00 in0.0 mm 0.00 in0.0 mm 0.25 in6.4 mm
09:49 PM 43.2°F6.2°C 35.1°F1.7°C 73% 13.0 mph W20.9 kmh W 17.0 mph27.4 kmh 29.29 in991.9 mb 0.00 in0.0 mm 0.00 in0.0 mm 0.25 in6.4 mm
09:54 PM 43.2°F6.2°C 35.5°F1.9°C 74% 10.0 mph WSW16.1 kmh WSW 13.0 mph20.9 kmh 29.28 in991.5 mb 0.00 in0.0 mm 0.00 in0.0 mm 0.25 in6.4 mm
09:59 PM 43.0°F6.1°C 35.6°F2.0°C 75% 10.0 mph WSW16.1 kmh WSW 14.0 mph22.5 kmh 29.28 in991.5 mb 0.00 in0.0 mm 0.00 in0.0 mm 0.25 in6.4 mm
10:04 PM 43.0°F6.1°C 35.6°F2.0°C 75% 11.0 mph WSW17.7 kmh WSW 17.0 mph27.4 kmh 29.28 in991.5 mb 0.00 in0.0 mm 0.00 in0.0 mm 0.25 in6.4 mm
10:09 PM 43.0°F6.1°C 36.0°F2.2°C 76% 11.0 mph W17.7 kmh W 13.0 mph20.9 kmh 29.28 in991.5 mb 0.00 in0.0 mm 0.00 in0.0 mm 0.25 in6.4 mm
10:14 PM 43.0°F6.1°C 36.0°F2.2°C 76% 8.0 mph WSW12.9 kmh WSW 13.0 mph20.9 kmh 29.28 in991.5 mb 0.00 in0.0 mm 0.00 in0.0 mm 0.25 in6.4 mm
10:19 PM 43.2°F6.2°C 35.8°F2.1°C 75% 8.0 mph WSW12.9 kmh WSW 14.0 mph22.5 kmh 29.27 in991.2 mb 0.00 in0.0 mm 0.00 in0.0 mm 0.25 in6.4 mm
10:24 PM 43.2°F6.2°C 36.1°F2.3°C 76% 8.0 mph SW12.9 kmh SW 14.0 mph22.5 kmh 29.28 in991.5 mb 0.00 in0.0 mm 0.00 in0.0 mm 0.25 in6.4 mm
10:29 PM 43.2°F6.2°C 36.1°F2.3°C 76% 9.0 mph SW14.5 kmh SW 15.0 mph24.1 kmh 29.27 in991.2 mb 0.00 in0.0 mm 0.00 in0.0 mm 0.25 in6.4 mm
10:34 PM 43.0°F6.1°C 36.3°F2.4°C 77% 8.0 mph W12.9 kmh W 11.0 mph17.7 kmh 29.27 in991.2 mb 0.00 in0.0 mm 0.00 in0.0 mm 0.25 in6.4 mm
10:39 PM 43.0°F6.1°C 36.3°F2.4°C 77% 9.0 mph WSW14.5 kmh WSW 17.0 mph27.4 kmh 29.27 in991.2 mb 0.00 in0.0 mm 0.00 in0.0 mm 0.25 in6.4 mm
10:44 PM 43.0°F6.1°C 36.3°F2.4°C 77% 12.0 mph W19.3 kmh W 15.0 mph24.1 kmh 29.27 in991.2 mb 0.00 in0.0 mm 0.00 in0.0 mm 0.25 in6.4 mm
10:49 PM 42.8°F6.0°C 36.4°F2.4°C 78% 10.0 mph WSW16.1 kmh WSW 16.0 mph25.7 kmh 29.27 in991.2 mb 0.00 in0.0 mm 0.00 in0.0 mm 0.25 in6.4 mm
10:54 PM 42.4°F5.8°C 36.1°F2.3°C 78% 11.0 mph SW17.7 kmh SW 18.0 mph29.0 kmh 29.27 in991.2 mb 0.00 in0.0 mm 0.00 in0.0 mm 0.25 in6.4 mm
10:59 PM 42.3°F5.7°C 35.9°F2.2°C 78% 14.0 mph W22.5 kmh W 26.0 mph41.8 kmh 29.27 in991.2 mb 0.00 in0.0 mm 0.00 in0.0 mm 0.25 in6.4 mm
11:04 PM 42.4°F5.8°C 36.4°F2.4°C 79% 10.0 mph W16.1 kmh W 16.0 mph25.7 kmh 29.27 in991.2 mb 0.00 in0.0 mm 0.00 in0.0 mm 0.25 in6.4 mm
11:09 PM 42.4°F5.8°C 36.4°F2.4°C 79% 15.0 mph W24.1 kmh W 21.0 mph33.8 kmh 29.27 in991.2 mb 0.00 in0.0 mm 0.00 in0.0 mm 0.25 in6.4 mm
11:14 PM 42.3°F5.7°C 36.5°F2.5°C 80% 12.0 mph W19.3 kmh W 27.0 mph43.5 kmh 29.27 in991.2 mb 0.00 in0.0 mm 0.00 in0.0 mm 0.25 in6.4 mm
11:19 PM 42.4°F5.8°C 36.4°F2.4°C 79% 15.0 mph W24.1 kmh W 22.0 mph35.4 kmh 29.27 in991.2 mb 0.00 in0.0 mm 0.00 in0.0 mm 0.25 in6.4 mm
11:23 PM 42.4°F5.8°C 36.7°F2.6°C 80% 12.0 mph WSW19.3 kmh WSW 19.0 mph30.6 kmh 29.27 in991.2 mb 0.00 in0.0 mm 0.00 in0.0 mm 0.25 in6.4 mm
11:29 PM 42.3°F5.7°C 36.9°F2.7°C 81% 15.0 mph W24.1 kmh W 23.0 mph37.0 kmh 29.27 in991.2 mb 0.00 in0.0 mm 0.00 in0.0 mm 0.25 in6.4 mm
11:34 PM 42.3°F5.7°C 36.5°F2.5°C 80% 18.0 mph W29.0 kmh W 26.0 mph41.8 kmh 29.27 in991.2 mb 0.00 in0.0 mm 0.00 in0.0 mm 0.25 in6.4 mm
11:39 PM 42.3°F5.7°C 34.9°F1.6°C 75% 18.0 mph W29.0 kmh W 27.0 mph43.5 kmh 29.27 in991.2 mb 0.00 in0.0 mm 0.00 in0.0 mm 0.25 in6.4 mm
11:44 PM 42.3°F5.7°C 34.9°F1.6°C 75% 17.0 mph W27.4 kmh W 24.0 mph38.6 kmh 29.27 in991.2 mb 0.00 in0.0 mm 0.00 in0.0 mm 0.25 in6.4 mm
11:49 PM 42.3°F5.7°C 34.9°F1.6°C 75% 18.0 mph W29.0 kmh W 31.0 mph49.9 kmh 29.27 in991.2 mb 0.00 in0.0 mm 0.00 in0.0 mm 0.25 in6.4 mm
11:54 PM 42.3°F5.7°C 34.9°F1.6°C 75% 16.0 mph W25.7 kmh W 29.0 mph46.7 kmh 29.28 in991.5 mb 0.00 in0.0 mm 0.00 in0.0 mm 0.25 in6.4 mm
11:59 PM 42.3°F5.7°C 35.3°F1.8°C 76% 20.0 mph W32.2 kmh W 29.0 mph46.7 kmh 29.27 in991.2 mb 0.00 in0.0 mm 0.00 in0.0 mm 0.25 in6.4 mm